createdAt,value
2024-04-25T00:00:42.486Z,2.27
2024-04-25T00:03:09.275Z,2.30
2024-04-25T00:05:36.062Z,2.27
2024-04-25T00:08:05.112Z,2.30
2024-04-25T00:10:31.833Z,2.28
2024-04-25T00:12:58.479Z,2.23
2024-04-25T00:15:25.150Z,2.16
2024-04-25T00:17:51.926Z,2.11
2024-04-25T00:20:18.830Z,2.09
2024-04-25T00:22:45.541Z,2.06
2024-04-25T00:25:12.336Z,2.07
2024-04-25T00:27:39.032Z,2.03
2024-04-25T00:30:06.584Z,2.05
2024-04-25T00:32:33.321Z,1.99
2024-04-25T00:35:01.806Z,1.99
2024-04-25T00:37:28.465Z,1.99
2024-04-25T00:39:56.423Z,1.99
2024-04-25T00:42:24.182Z,1.97
2024-04-25T00:44:51.364Z,1.96
2024-04-25T00:47:23.326Z,1.93
2024-04-25T00:49:53.269Z,1.93
2024-04-25T00:52:21.630Z,1.91
2024-04-25T00:54:48.511Z,1.95
2024-04-25T00:57:16.477Z,1.94
2024-04-25T00:59:47.199Z,1.98
2024-04-25T01:02:16.764Z,2.03
2024-04-25T01:04:44.981Z,2.06
2024-04-25T01:07:11.623Z,2.12
2024-04-25T01:09:38.286Z,2.18
2024-04-25T01:12:06.166Z,2.21
2024-04-25T01:14:33.077Z,2.25
2024-04-25T01:16:59.839Z,2.36
2024-04-25T01:19:26.542Z,2.41
2024-04-25T01:21:53.276Z,2.48
2024-04-25T01:24:30.723Z,2.51
2024-04-25T01:26:58.239Z,2.55
2024-04-25T01:29:25.790Z,2.61
2024-04-25T01:31:53.242Z,2.65
2024-04-25T01:34:20.936Z,2.63
2024-04-25T01:36:47.675Z,2.61
2024-04-25T01:39:15.084Z,2.54
2024-04-25T01:41:41.843Z,2.49
2024-04-25T01:44:08.627Z,2.46
2024-04-25T01:46:36.105Z,2.39
2024-04-25T01:49:02.907Z,2.37
2024-04-25T01:51:29.816Z,2.33
2024-04-25T01:53:56.525Z,2.33
2024-04-25T01:56:23.228Z,2.31
2024-04-25T01:58:50.040Z,2.30
2024-04-25T02:01:16.735Z,2.29
2024-04-25T02:03:43.864Z,2.27
2024-04-25T02:06:13.338Z,2.25
2024-04-25T02:08:39.879Z,2.25
2024-04-25T02:11:09.641Z,2.19
2024-04-25T02:13:36.862Z,2.16
2024-04-25T02:16:03.682Z,2.15
2024-04-25T02:18:30.449Z,2.16
2024-04-25T02:21:15.857Z,2.17
2024-04-25T02:24:01.119Z,2.16
2024-04-25T02:26:27.857Z,2.11
2024-04-25T02:28:54.868Z,2.09
2024-04-25T02:31:23.783Z,2.02
2024-04-25T02:33:50.377Z,2.04
2024-04-25T02:36:17.100Z,2.08
2024-04-25T02:38:43.707Z,2.09
2024-04-25T02:41:10.373Z,2.10
2024-04-25T02:43:37.700Z,2.08
2024-04-25T02:46:04.593Z,2.13
2024-04-25T02:48:31.292Z,2.18
2024-04-25T02:50:57.989Z,2.26
2024-04-25T02:53:26.956Z,2.30
2024-04-25T02:55:53.640Z,2.35
2024-04-25T02:58:20.257Z,2.38
2024-04-25T03:00:47.023Z,2.39
2024-04-25T03:03:13.897Z,2.40
2024-04-25T03:05:44.082Z,2.42
2024-04-25T03:08:10.730Z,2.43
2024-04-25T03:10:37.386Z,2.44
2024-04-25T03:13:04.185Z,2.43
2024-04-25T03:15:30.818Z,2.41
2024-04-25T03:17:57.641Z,2.35
2024-04-25T03:20:24.358Z,2.29
2024-04-25T03:22:51.088Z,2.26
2024-04-25T03:25:17.719Z,2.20
2024-04-25T03:27:45.055Z,2.14
2024-04-25T03:30:12.369Z,2.11
2024-04-25T03:32:39.380Z,2.06
2024-04-25T03:35:06.509Z,2.03
2024-04-25T03:37:33.244Z,1.99
2024-04-25T03:39:59.879Z,1.94
2024-04-25T03:42:26.558Z,1.92
2024-04-25T03:44:53.669Z,1.88
2024-04-25T03:47:21.939Z,1.91
2024-04-25T03:49:49.281Z,1.85
2024-04-25T03:52:15.966Z,1.80
2024-04-25T03:54:42.611Z,1.75
2024-04-25T03:57:09.239Z,1.74
2024-04-25T03:59:35.932Z,1.76
2024-04-25T04:02:02.703Z,1.78
2024-04-25T04:04:29.387Z,1.81
2024-04-25T04:06:56.013Z,1.82
2024-04-25T04:09:22.695Z,1.92
2024-04-25T04:11:49.476Z,1.98
2024-04-25T04:14:16.250Z,2.08
2024-04-25T04:16:42.898Z,2.13
2024-04-25T04:19:09.542Z,2.19
2024-04-25T04:21:36.159Z,2.22
2024-04-25T04:24:02.782Z,2.25
2024-04-25T04:26:29.465Z,2.28
2024-04-25T04:28:56.142Z,2.30
2024-04-25T04:31:22.858Z,2.36
2024-04-25T04:33:49.695Z,2.38
2024-04-25T04:36:16.457Z,2.40
2024-04-25T04:38:43.135Z,2.44
2024-04-25T04:41:10.062Z,2.45
2024-04-25T04:43:38.132Z,2.44
2024-04-25T04:46:05.456Z,2.44
2024-04-25T04:48:34.917Z,2.48
2024-04-25T04:51:02.846Z,2.48
2024-04-25T04:53:29.542Z,2.48
2024-04-25T04:55:56.201Z,2.47
2024-04-25T04:58:22.869Z,2.49
2024-04-25T05:00:49.515Z,2.49
2024-04-25T05:03:16.375Z,2.52
2024-04-25T05:05:43.098Z,2.54
2024-04-25T05:08:09.742Z,2.65
2024-04-25T05:10:36.396Z,2.72
2024-04-25T05:13:03.132Z,2.81
2024-04-25T05:15:31.332Z,2.88
2024-04-25T05:17:58.121Z,2.97
2024-04-25T05:20:24.860Z,3.04
2024-04-25T05:22:51.503Z,3.14
2024-04-25T05:25:18.147Z,3.15
2024-04-25T05:27:44.840Z,3.13
2024-04-25T05:30:11.563Z,3.17
2024-04-25T05:32:38.383Z,3.21
2024-04-25T05:35:06.991Z,3.21
2024-04-25T05:37:33.792Z,3.17
2024-04-25T05:40:00.520Z,3.16
2024-04-25T05:42:27.168Z,3.22
2024-04-25T05:44:54.300Z,3.35
2024-04-25T05:47:21.884Z,3.52
2024-04-25T05:49:50.747Z,3.60
2024-04-25T05:52:19.904Z,3.71
2024-04-25T05:54:47.134Z,3.76
2024-04-25T05:57:13.732Z,3.82
2024-04-25T05:59:40.487Z,3.86
2024-04-25T06:02:08.492Z,3.94
2024-04-25T06:04:35.453Z,3.97
2024-04-25T06:07:02.200Z,4.06
2024-04-25T06:09:29.001Z,4.13
2024-04-25T06:11:55.736Z,4.24
2024-04-25T06:14:23.074Z,4.34
2024-04-25T06:16:50.111Z,4.41
2024-04-25T06:19:16.905Z,4.52
2024-04-25T06:21:43.664Z,4.62
2024-04-25T06:24:10.376Z,4.64
2024-04-25T06:26:37.153Z,4.70
2024-04-25T06:29:03.970Z,4.78
2024-04-25T06:31:30.618Z,4.78
2024-04-25T06:34:02.615Z,4.77
2024-04-25T06:36:33.056Z,4.87
2024-04-25T06:39:00.227Z,5.01
2024-04-25T06:41:27.246Z,4.99
2024-04-25T06:43:55.207Z,4.97
2024-04-25T06:46:23.356Z,4.99
2024-04-25T06:48:53.761Z,5.09
2024-04-25T06:51:22.463Z,5.08
2024-04-25T06:53:49.407Z,5.31
2024-04-25T06:56:16.391Z,5.41
2024-04-25T06:58:43.383Z,5.52
2024-04-25T07:01:10.091Z,5.45
2024-04-25T07:03:36.812Z,5.55
2024-04-25T07:06:03.610Z,5.66
2024-04-25T07:08:31.847Z,5.94
2024-04-25T07:11:00.971Z,6.05
2024-04-25T07:13:27.734Z,6.12
2024-04-25T07:15:55.263Z,6.23
2024-04-25T07:18:22.394Z,6.35
2024-04-25T07:20:49.233Z,6.60
2024-04-25T07:23:15.911Z,6.84
2024-04-25T07:25:43.932Z,6.97
2024-04-25T07:28:10.641Z,7.06
2024-04-25T07:30:37.288Z,7.00
2024-04-25T07:35:30.999Z,7.11
2024-04-25T07:37:58.998Z,7.12
2024-04-25T07:40:25.634Z,7.02
2024-04-25T07:42:52.288Z,7.20
2024-04-25T07:45:18.953Z,7.26
2024-04-25T07:47:45.749Z,7.23
2024-04-25T07:50:12.488Z,7.07
2024-04-25T07:52:39.190Z,6.96
2024-04-25T07:55:07.111Z,7.03
2024-04-25T07:57:33.776Z,7.10
2024-04-25T08:00:00.425Z,7.08
2024-04-25T08:02:27.258Z,7.16
2024-04-25T08:04:56.358Z,7.05
2024-04-25T08:07:22.976Z,7.45
2024-04-25T08:09:49.674Z,7.88
2024-04-25T08:12:16.334Z,8.05
2024-04-25T08:14:45.666Z,8.05
2024-04-25T08:17:12.728Z,7.69
2024-04-25T08:19:39.529Z,7.45
2024-04-25T08:22:07.196Z,7.28
2024-04-25T08:24:33.926Z,7.06
2024-04-25T08:27:00.647Z,6.87
2024-04-25T08:29:27.389Z,6.88
2024-04-25T08:31:54.341Z,6.84
2024-04-25T08:34:21.089Z,6.62
2024-04-25T08:36:47.750Z,6.49
2024-04-25T08:39:14.394Z,6.40
2024-04-25T08:41:45.191Z,6.49
2024-04-25T08:44:14.057Z,6.59
2024-04-25T08:46:47.085Z,6.63
2024-04-25T08:49:14.114Z,6.76
2024-04-25T08:51:42.149Z,6.94
2024-04-25T08:54:10.599Z,7.10
2024-04-25T08:56:38.034Z,7.22
2024-04-25T08:59:04.846Z,7.34
2024-04-25T09:01:32.775Z,7.24
2024-04-25T09:04:03.749Z,7.19
2024-04-25T09:06:30.402Z,7.23
2024-04-25T09:08:57.058Z,7.34
2024-04-25T09:11:25.312Z,7.43
2024-04-25T09:13:56.341Z,7.30
2024-04-25T09:16:24.018Z,7.61
2024-04-25T09:18:51.644Z,7.88
2024-04-25T09:21:18.560Z,7.82
2024-04-25T09:23:45.426Z,7.92
2024-04-25T09:26:13.871Z,7.98
2024-04-25T09:28:43.315Z,8.02
2024-04-25T09:31:10.576Z,8.37
2024-04-25T09:33:37.301Z,9.03
2024-04-25T09:36:04.606Z,9.22
2024-04-25T09:38:32.281Z,9.02
2024-04-25T09:40:59.409Z,8.76
2024-04-25T09:43:26.954Z,8.64
2024-04-25T09:45:59.533Z,8.26
2024-04-25T09:48:32.648Z,7.85
2024-04-25T09:51:31.344Z,7.43
2024-04-25T09:54:09.282Z,7.68
2024-04-25T09:56:38.680Z,8.12
2024-04-25T09:59:30.312Z,8.07
2024-04-25T10:01:58.276Z,8.11
2024-04-25T10:04:26.026Z,8.02
2024-04-25T10:06:53.736Z,8.16
2024-04-25T10:09:21.021Z,7.80
2024-04-25T10:11:50.933Z,7.82
2024-04-25T10:14:27.245Z,7.81
2024-04-25T10:16:53.987Z,7.92
2024-04-25T10:19:20.983Z,7.88
2024-04-25T10:21:48.481Z,8.02
2024-04-25T10:24:15.474Z,7.79
2024-04-25T10:26:48.650Z,7.55
2024-04-25T10:29:15.482Z,7.50
2024-04-25T10:31:42.966Z,7.10
2024-04-25T10:34:10.480Z,5.74
2024-04-25T10:36:38.373Z,4.90
2024-04-25T10:39:08.807Z,4.77
2024-04-25T10:41:40.825Z,4.73
2024-04-25T10:44:08.978Z,4.88
2024-04-25T10:46:39.657Z,4.95
2024-04-25T10:49:07.352Z,5.17
2024-04-25T10:51:35.926Z,5.36
2024-04-25T10:54:02.874Z,5.45
2024-04-25T10:56:29.785Z,5.67
2024-04-25T10:58:57.903Z,5.99
2024-04-25T11:01:30.390Z,6.53
2024-04-25T11:04:07.074Z,7.06
2024-04-25T11:06:38.262Z,7.35
2024-04-25T11:09:10.612Z,7.86
2024-04-25T11:11:38.530Z,8.37
2024-04-25T11:14:05.286Z,8.68
2024-04-25T11:16:38.152Z,8.54
2024-04-25T11:19:13.530Z,8.34
2024-04-25T11:21:45.516Z,8.18
2024-04-25T11:24:15.634Z,8.38
2024-04-25T11:26:42.393Z,8.30
2024-04-25T11:29:09.104Z,8.20
2024-04-25T11:31:35.853Z,8.07
2024-04-25T11:34:06.718Z,8.37
2024-04-25T11:36:33.653Z,8.71
2024-04-25T11:39:03.093Z,8.74
2024-04-25T11:41:29.876Z,8.96
2024-04-25T11:43:56.579Z,9.17
2024-04-25T11:46:23.223Z,9.43
2024-04-25T11:49:02.717Z,9.14
2024-04-25T11:51:29.476Z,8.82
2024-04-25T11:53:56.205Z,8.93
2024-04-25T11:56:22.951Z,9.20
2024-04-25T11:58:49.619Z,9.54
2024-04-25T12:01:16.293Z,9.94
2024-04-25T12:03:43.005Z,9.69
2024-04-25T12:06:09.867Z,9.80
2024-04-25T12:08:39.143Z,10.08
2024-04-25T12:11:06.367Z,10.19
2024-04-25T12:13:33.031Z,10.49
2024-04-25T12:15:59.865Z,10.60
2024-04-25T12:18:29.124Z,10.52
2024-04-25T12:20:58.979Z,10.22
2024-04-25T12:23:27.529Z,10.25
2024-04-25T12:25:55.874Z,9.86
2024-04-25T12:28:22.555Z,9.85
2024-04-25T12:30:51.093Z,9.23
2024-04-25T12:33:17.947Z,9.24
2024-04-25T12:35:44.930Z,9.27
2024-04-25T12:38:11.699Z,9.28
2024-04-25T12:40:38.332Z,9.99
2024-04-25T12:43:06.096Z,10.70
2024-04-25T12:45:37.660Z,10.84
2024-04-25T12:48:06.550Z,10.99
2024-04-25T12:50:33.561Z,11.07
2024-04-25T12:53:00.274Z,11.33
2024-04-25T12:55:27.165Z,11.42
2024-04-25T12:57:56.235Z,11.28
2024-04-25T13:00:23.541Z,11.30
2024-04-25T13:02:50.560Z,11.39
2024-04-25T13:05:17.340Z,11.39
2024-04-25T13:07:44.573Z,11.50
2024-04-25T13:10:11.319Z,11.77
2024-04-25T13:12:38.932Z,12.21
2024-04-25T13:15:06.227Z,11.97
2024-04-25T13:17:34.255Z,12.18
2024-04-25T13:20:02.420Z,12.34
2024-04-25T13:22:29.046Z,12.19
2024-04-25T13:24:56.612Z,11.89
2024-04-25T13:27:23.242Z,11.82
2024-04-25T13:29:51.354Z,11.62
2024-04-25T13:32:18.453Z,11.20
2024-04-25T13:34:45.175Z,11.54
2024-04-25T13:37:11.807Z,11.69
2024-04-25T13:39:40.438Z,11.65
2024-04-25T13:42:11.494Z,11.57
2024-04-25T13:44:38.179Z,11.35
2024-04-25T13:47:04.867Z,11.22
2024-04-25T13:49:31.645Z,11.20
2024-04-25T13:51:58.360Z,10.91
2024-04-25T13:54:25.010Z,10.78
2024-04-25T13:56:51.687Z,10.61
2024-04-25T13:59:22.134Z,10.26
2024-04-25T14:01:49.770Z,10.02
2024-04-25T14:04:16.546Z,9.94
2024-04-25T14:06:44.508Z,9.84
2024-04-25T14:09:11.195Z,9.73
2024-04-25T14:11:37.958Z,9.81
2024-04-25T14:14:06.030Z,9.74
2024-04-25T14:16:32.714Z,9.71
2024-04-25T14:18:59.386Z,9.71
2024-04-25T14:21:26.269Z,9.57
2024-04-25T14:23:52.950Z,9.43
2024-04-25T14:26:38.198Z,9.61
2024-04-25T14:29:05.922Z,9.61
2024-04-25T14:31:32.725Z,9.57
2024-04-25T14:33:59.656Z,9.74
2024-04-25T14:36:26.406Z,9.88
2024-04-25T14:38:53.277Z,9.91
2024-04-25T14:41:20.051Z,9.82
2024-04-25T14:43:51.988Z,9.93
2024-04-25T14:46:24.858Z,9.95
2024-04-25T14:48:51.578Z,9.87
2024-04-25T14:51:18.321Z,9.66
2024-04-25T14:53:46.447Z,9.60
2024-04-25T14:56:13.302Z,9.54
2024-04-25T14:58:40.088Z,9.42
2024-04-25T15:01:06.885Z,9.30
2024-04-25T15:03:34.769Z,9.39
2024-04-25T15:06:01.543Z,9.31
2024-04-25T15:08:28.191Z,9.17
2024-04-25T15:10:54.846Z,9.11
2024-04-25T15:13:22.266Z,9.09
2024-04-25T15:15:52.413Z,9.03
2024-04-25T15:18:19.238Z,9.04
2024-04-25T15:20:46.031Z,9.08
2024-04-25T15:23:12.696Z,9.16
2024-04-25T15:25:39.351Z,9.14
2024-04-25T15:28:06.434Z,9.12
2024-04-25T15:30:35.057Z,9.13
2024-04-25T15:33:01.849Z,9.14
2024-04-25T15:35:28.680Z,9.02
2024-04-25T15:37:55.313Z,9.02
2024-04-25T15:40:21.987Z,9.05
2024-04-25T15:42:49.777Z,8.96
2024-04-25T15:45:16.769Z,8.81
2024-04-25T15:47:43.553Z,8.70
2024-04-25T15:50:10.756Z,8.75
2024-04-25T15:52:37.388Z,8.76
2024-04-25T15:55:04.270Z,8.75
2024-04-25T15:57:31.104Z,8.70
2024-04-25T15:59:57.780Z,8.69
2024-04-25T16:02:24.750Z,8.52
2024-04-25T16:04:52.207Z,8.46
2024-04-25T16:07:19.107Z,8.31
2024-04-25T16:09:46.923Z,8.27
2024-04-25T16:12:13.766Z,8.19
2024-04-25T16:14:40.625Z,8.09
2024-04-25T16:17:07.435Z,8.01
2024-04-25T16:19:36.545Z,8.02
2024-04-25T16:22:03.363Z,7.99
2024-04-25T16:24:30.139Z,7.91
2024-04-25T16:26:56.917Z,7.98
2024-04-25T16:29:25.912Z,7.88
2024-04-25T16:31:53.491Z,7.77
2024-04-25T16:34:20.495Z,7.61
2024-04-25T16:36:47.253Z,7.46
2024-04-25T16:39:13.900Z,7.24
2024-04-25T16:41:40.602Z,7.11
2024-04-25T16:44:07.241Z,7.01
2024-04-25T16:46:34.419Z,6.97
2024-04-25T16:49:01.048Z,6.82
2024-04-25T16:51:29.794Z,6.78
2024-04-25T16:53:56.579Z,6.70
2024-04-25T16:56:23.325Z,6.66
2024-04-25T16:58:50.590Z,6.62
2024-04-25T17:01:18.007Z,6.63
2024-04-25T17:03:45.286Z,6.62
2024-04-25T17:06:12.092Z,6.56
2024-04-25T17:08:38.805Z,6.52
2024-04-25T17:11:05.537Z,6.53
2024-04-25T17:13:32.239Z,6.57
2024-04-25T17:15:58.931Z,6.50
2024-04-25T17:18:25.694Z,6.52
2024-04-25T17:20:52.542Z,6.53
2024-04-25T17:23:22.064Z,6.53
2024-04-25T17:25:48.851Z,6.53
2024-04-25T17:28:15.483Z,6.49
2024-04-25T17:30:42.193Z,6.48
2024-04-25T17:33:09.013Z,6.49
2024-04-25T17:35:35.907Z,6.49
2024-04-25T17:38:02.667Z,6.46
2024-04-25T17:40:29.349Z,6.43
2024-04-25T17:42:55.992Z,6.44
2024-04-25T17:45:22.761Z,6.45
2024-04-25T17:47:50.931Z,6.40
2024-04-25T17:50:17.735Z,6.41
2024-04-25T17:52:44.523Z,6.41
2024-04-25T17:55:12.441Z,6.40
2024-04-25T17:57:43.874Z,6.37
2024-04-25T18:00:11.908Z,6.34
2024-04-25T18:02:40.296Z,6.34
2024-04-25T18:05:07.417Z,6.32
2024-04-25T18:07:36.705Z,6.34
2024-04-25T18:10:04.156Z,6.30
2024-04-25T18:12:31.006Z,6.31
2024-04-25T18:15:13.332Z,6.32
2024-04-25T18:17:40.284Z,6.32
2024-04-25T18:20:07.552Z,6.28
2024-04-25T18:22:34.886Z,6.30
2024-04-25T18:25:01.530Z,6.29
2024-04-25T18:27:28.215Z,6.30
2024-04-25T18:29:54.922Z,6.28
2024-04-25T18:32:21.749Z,6.29
2024-04-25T18:34:48.462Z,6.31
2024-04-25T18:37:15.115Z,6.24
2024-04-25T18:39:41.872Z,6.25
2024-04-25T18:42:09.946Z,6.24
2024-04-25T18:44:37.187Z,6.23
2024-04-25T18:47:04.250Z,6.25
2024-04-25T18:49:32.417Z,6.26
2024-04-25T18:52:00.214Z,6.23
2024-04-25T18:54:27.765Z,6.22
2024-04-25T18:56:55.157Z,6.14
2024-04-25T18:59:22.680Z,6.16
2024-04-25T19:01:49.408Z,6.16
2024-04-25T19:04:21.488Z,6.12
2024-04-25T19:06:50.583Z,6.12
2024-04-25T19:09:18.371Z,6.14
2024-04-25T19:11:46.384Z,6.03
2024-04-25T19:14:13.823Z,5.91
2024-04-25T19:16:41.157Z,5.81
2024-04-25T19:19:10.982Z,5.66
2024-04-25T19:21:49.928Z,5.59
2024-04-25T19:24:18.520Z,5.49
2024-04-25T19:26:46.468Z,5.48
2024-04-25T19:29:17.794Z,5.42
2024-04-25T19:31:46.404Z,5.37
2024-04-25T19:34:24.637Z,5.35
2024-04-25T19:36:52.705Z,5.36
2024-04-25T19:39:20.308Z,5.39
2024-04-25T19:41:50.808Z,5.42
2024-04-25T19:44:18.229Z,5.40
2024-04-25T19:46:45.359Z,5.41
2024-04-25T19:49:12.177Z,5.45
2024-04-25T19:51:41.590Z,5.46
2024-04-25T19:54:08.264Z,5.43
2024-04-25T19:56:35.008Z,5.47
2024-04-25T19:59:01.727Z,5.50
2024-04-25T20:01:28.364Z,5.49
2024-04-25T20:03:55.028Z,5.51
2024-04-25T20:06:25.358Z,5.48
2024-04-25T20:08:52.272Z,5.49
2024-04-25T20:11:19.213Z,5.47
2024-04-25T20:13:45.954Z,5.46
2024-04-25T20:16:17.337Z,5.48
2024-04-25T20:19:02.660Z,5.46
2024-04-25T20:21:29.391Z,5.45
2024-04-25T20:23:56.234Z,5.44
2024-04-25T20:26:23.767Z,5.42
2024-04-25T20:28:50.441Z,5.43
2024-04-25T20:31:18.943Z,5.48
2024-04-25T20:33:46.733Z,5.45
2024-04-25T20:36:15.284Z,5.39
2024-04-25T20:38:42.418Z,5.41
2024-04-25T20:41:09.275Z,5.40
2024-04-25T20:43:35.904Z,5.40
2024-04-25T20:46:02.559Z,5.45
2024-04-25T20:48:29.322Z,5.47
2024-04-25T20:50:56.152Z,5.48
2024-04-25T20:53:22.956Z,5.52
2024-04-25T20:55:49.626Z,5.49
2024-04-25T20:58:16.243Z,5.48
2024-04-25T21:00:46.558Z,5.48
2024-04-25T21:03:16.321Z,5.51
2024-04-25T21:05:43.050Z,5.51
2024-04-25T21:08:09.716Z,5.49
2024-04-25T21:10:36.330Z,5.49
2024-04-25T21:13:03.151Z,5.51
2024-04-25T21:15:29.918Z,5.51
2024-04-25T21:17:56.674Z,5.50
2024-04-25T21:20:23.436Z,5.47
2024-04-25T21:22:50.163Z,5.49
2024-04-25T21:25:18.440Z,5.51
2024-04-25T21:27:45.175Z,5.50
2024-04-25T21:30:11.865Z,5.52
2024-04-25T21:32:44.680Z,5.49
2024-04-25T21:35:12.227Z,5.45
2024-04-25T21:37:38.926Z,5.47
2024-04-25T21:40:05.858Z,5.45
2024-04-25T21:42:32.510Z,5.49
2024-04-25T21:45:01.164Z,5.52
2024-04-25T21:47:28.079Z,5.50
2024-04-25T21:49:54.860Z,5.49
2024-04-25T21:52:21.500Z,5.51
2024-04-25T21:54:48.179Z,5.50
2024-04-25T21:57:18.568Z,5.49
2024-04-25T21:59:45.860Z,5.53
2024-04-25T22:02:12.513Z,5.55
2024-04-25T22:04:39.191Z,5.53
2024-04-25T22:07:06.184Z,5.55
2024-04-25T22:09:32.899Z,5.52
2024-04-25T22:11:59.710Z,5.54
2024-04-25T22:14:26.479Z,5.54
2024-04-25T22:16:53.148Z,5.51
2024-04-25T22:19:20.050Z,5.51
2024-04-25T22:21:50.819Z,5.49
2024-04-25T22:24:19.978Z,5.51
2024-04-25T22:26:48.081Z,5.53
2024-04-25T22:29:14.982Z,5.51
2024-04-25T22:31:41.647Z,5.52
2024-04-25T22:34:08.419Z,5.54
2024-04-25T22:36:35.156Z,5.57
2024-04-25T22:39:01.950Z,5.57
2024-04-25T22:41:28.667Z,5.56
2024-04-25T22:43:55.376Z,5.59
2024-04-25T22:46:22.022Z,5.59
2024-04-25T22:48:48.792Z,5.57
2024-04-25T22:51:18.712Z,5.58
2024-04-25T22:53:45.440Z,5.59
2024-04-25T22:56:12.269Z,5.56
2024-04-25T22:58:38.951Z,5.56
2024-04-25T23:01:05.679Z,5.56
2024-04-25T23:03:32.443Z,5.57
2024-04-25T23:05:59.468Z,5.56
2024-04-25T23:08:26.407Z,5.56
2024-04-25T23:10:53.230Z,5.54
2024-04-25T23:13:19.855Z,5.53
2024-04-25T23:15:46.648Z,5.54
2024-04-25T23:18:13.563Z,5.56
2024-04-25T23:20:40.494Z,5.57
2024-04-25T23:23:07.310Z,5.55
2024-04-25T23:25:34.203Z,5.54
2024-04-25T23:28:00.917Z,5.54
2024-04-25T23:30:27.567Z,5.55
2024-04-25T23:32:54.473Z,5.56
2024-04-25T23:35:21.375Z,5.58
2024-04-25T23:37:48.058Z,5.57
2024-04-25T23:40:14.969Z,5.55
2024-04-25T23:42:41.623Z,5.55
2024-04-25T23:45:08.606Z,5.57
2024-04-25T23:47:35.467Z,5.59
2024-04-25T23:50:02.479Z,5.57
2024-04-25T23:52:29.157Z,5.58
2024-04-25T23:54:55.845Z,5.59
2024-04-25T23:57:22.565Z,5.58
2024-04-25T23:59:49.342Z,5.59
